sensor_id;sensor_type;location;lat;lon;timestamp;pressure;altitude;pressure_sealevel;temperature;humidity
62703;BME280;66022;50.448;18.122;2023-04-05T00:03:14;99840.06;;;-1.62;70.13
62703;BME280;66022;50.448;18.122;2023-04-05T00:07:28;99838.30;;;-1.63;71.32
62703;BME280;66022;50.448;18.122;2023-04-05T00:11:43;99836.11;;;-1.67;71.12
62703;BME280;66022;50.448;18.122;2023-04-05T00:15:56;99832.98;;;-1.76;73.37
62703;BME280;66022;50.448;18.122;2023-04-05T00:20:11;99829.52;;;-1.78;70.75
62703;BME280;66022;50.448;18.122;2023-04-05T00:24:24;99825.28;;;-1.79;71.01
62703;BME280;66022;50.448;18.122;2023-04-05T00:28:39;99820.67;;;-1.79;71.36
62703;BME280;66022;50.448;18.122;2023-04-05T00:32:53;99816.76;;;-1.75;70.96
62703;BME280;66022;50.448;18.122;2023-04-05T00:37:07;99813.60;;;-1.74;72.79
62703;BME280;66022;50.448;18.122;2023-04-05T00:41:20;99810.29;;;-1.69;70.99
62703;BME280;66022;50.448;18.122;2023-04-05T00:45:35;99807.78;;;-1.66;71.05
62703;BME280;66022;50.448;18.122;2023-04-05T00:49:48;99805.20;;;-1.62;70.78
62703;BME280;66022;50.448;18.122;2023-04-05T00:54:03;99804.00;;;-1.59;71.53
62703;BME280;66022;50.448;18.122;2023-04-05T00:58:17;99802.18;;;-1.59;72.84
62703;BME280;66022;50.448;18.122;2023-04-05T01:02:31;99799.44;;;-1.55;72.46
62703;BME280;66022;50.448;18.122;2023-04-05T01:06:57;99796.69;;;-1.53;73.38
62703;BME280;66022;50.448;18.122;2023-04-05T01:10:59;99794.80;;;-1.51;71.77
62703;BME280;66022;50.448;18.122;2023-04-05T01:15:13;99793.22;;;-1.51;72.04
62703;BME280;66022;50.448;18.122;2023-04-05T01:19:27;99791.41;;;-1.51;72.61
62703;BME280;66022;50.448;18.122;2023-04-05T01:28:00;99786.52;;;-1.47;73.30
62703;BME280;66022;50.448;18.122;2023-04-05T01:32:10;99782.47;;;-1.41;72.13
62703;BME280;66022;50.448;18.122;2023-04-05T01:36:24;99777.69;;;-1.38;74.44
62703;BME280;66022;50.448;18.122;2023-04-05T01:40:37;99773.74;;;-1.33;71.48
62703;BME280;66022;50.448;18.122;2023-04-05T01:44:51;99769.78;;;-1.33;71.84
62703;BME280;66022;50.448;18.122;2023-04-05T01:49:05;99764.37;;;-1.34;72.50
62703;BME280;66022;50.448;18.122;2023-04-05T01:53:19;99761.22;;;-1.33;72.24
62703;BME280;66022;50.448;18.122;2023-04-05T01:57:33;99758.20;;;-1.34;72.89
62703;BME280;66022;50.448;18.122;2023-04-05T02:01:47;99755.16;;;-1.33;72.02
62703;BME280;66022;50.448;18.122;2023-04-05T02:06:01;99753.36;;;-1.39;75.07
62703;BME280;66022;50.448;18.122;2023-04-05T02:10:14;99750.95;;;-1.41;72.70
62703;BME280;66022;50.448;18.122;2023-04-05T02:14:29;99748.83;;;-1.46;72.82
62703;BME280;66022;50.448;18.122;2023-04-05T02:18:42;99746.32;;;-1.52;73.28
62703;BME280;66022;50.448;18.122;2023-04-05T02:22:57;99744.14;;;-1.55;72.86
62703;BME280;66022;50.448;18.122;2023-04-05T02:27:11;99742.14;;;-1.61;74.60
62703;BME280;66022;50.448;18.122;2023-04-05T02:31:25;99740.87;;;-1.64;73.21
62703;BME280;66022;50.448;18.122;2023-04-05T02:35:38;99739.26;;;-1.67;72.63
62703;BME280;66022;50.448;18.122;2023-04-05T02:39:52;99737.95;;;-1.70;73.21
62703;BME280;66022;50.448;18.122;2023-04-05T02:44:07;99737.48;;;-1.74;73.29
62703;BME280;66022;50.448;18.122;2023-04-05T02:48:20;99736.68;;;-1.83;74.07
62703;BME280;66022;50.448;18.122;2023-04-05T02:52:35;99736.04;;;-1.84;73.50
62703;BME280;66022;50.448;18.122;2023-04-05T02:56:48;99735.50;;;-1.88;75.79
62703;BME280;66022;50.448;18.122;2023-04-05T03:01:03;99735.03;;;-1.90;73.70
62703;BME280;66022;50.448;18.122;2023-04-05T03:05:17;99734.12;;;-1.93;73.58
62703;BME280;66022;50.448;18.122;2023-04-05T03:09:31;99732.09;;;-1.97;74.03
62703;BME280;66022;50.448;18.122;2023-04-05T03:13:45;99731.08;;;-2.02;74.29
62703;BME280;66022;50.448;18.122;2023-04-05T03:17:59;99730.42;;;-2.11;75.59
62703;BME280;66022;50.448;18.122;2023-04-05T03:22:13;99729.06;;;-2.17;74.71
62703;BME280;66022;50.448;18.122;2023-04-05T03:26:27;99727.97;;;-2.24;77.74
62703;BME280;66022;50.448;18.122;2023-04-05T03:30:41;99727.29;;;-2.25;74.76
62703;BME280;66022;50.448;18.122;2023-04-05T03:34:55;99724.38;;;-2.26;74.29
62703;BME280;66022;50.448;18.122;2023-04-05T03:39:09;99721.57;;;-2.26;74.69
62703;BME280;66022;50.448;18.122;2023-04-05T03:43:23;99719.81;;;-2.25;74.36
62703;BME280;66022;50.448;18.122;2023-04-05T03:47:37;99718.34;;;-2.24;75.26
62703;BME280;66022;50.448;18.122;2023-04-05T03:51:51;99715.44;;;-2.22;73.87
62703;BME280;66022;50.448;18.122;2023-04-05T03:56:05;99712.67;;;-2.26;77.23
62703;BME280;66022;50.448;18.122;2023-04-05T04:00:19;99710.69;;;-2.26;74.99
62703;BME280;66022;50.448;18.122;2023-04-05T04:04:33;99709.80;;;-2.28;74.49
62703;BME280;66022;50.448;18.122;2023-04-05T04:08:47;99708.57;;;-2.31;75.15
62703;BME280;66022;50.448;18.122;2023-04-05T04:13:01;99709.48;;;-2.30;74.59
62703;BME280;66022;50.448;18.122;2023-04-05T04:17:25;99709.74;;;-2.32;76.62
62703;BME280;66022;50.448;18.122;2023-04-05T04:21:29;99710.74;;;-2.31;75.67
62703;BME280;66022;50.448;18.122;2023-04-05T04:25:43;99711.15;;;-2.32;75.46
62703;BME280;66022;50.448;18.122;2023-04-05T04:29:57;99712.19;;;-2.31;74.72
62703;BME280;66022;50.448;18.122;2023-04-05T04:34:12;99713.76;;;-2.30;74.40
62703;BME280;66022;50.448;18.122;2023-04-05T04:38:25;99715.70;;;-2.36;74.97
62703;BME280;66022;50.448;18.122;2023-04-05T04:42:39;99716.86;;;-2.35;74.53
62703;BME280;66022;50.448;18.122;2023-04-05T04:46:53;99719.00;;;-2.36;76.76
62703;BME280;66022;50.448;18.122;2023-04-05T04:51:07;99721.01;;;-2.32;74.67
62703;BME280;66022;50.448;18.122;2023-04-05T04:55:21;99720.92;;;-2.28;74.57
62703;BME280;66022;50.448;18.122;2023-04-05T04:59:35;99721.51;;;-2.21;74.66
62703;BME280;66022;50.448;18.122;2023-04-05T05:03:49;99720.86;;;-2.11;73.56
62703;BME280;66022;50.448;18.122;2023-04-05T05:08:03;99720.43;;;-2.02;73.99
62703;BME280;66022;50.448;18.122;2023-04-05T05:12:17;99719.62;;;-1.90;73.05
62703;BME280;66022;50.448;18.122;2023-04-05T05:16:31;99719.09;;;-1.80;76.19
62703;BME280;66022;50.448;18.122;2023-04-05T05:20:48;99719.06;;;-1.66;72.65
62703;BME280;66022;50.448;18.122;2023-04-05T05:24:59;99720.09;;;-1.50;71.85
62703;BME280;66022;50.448;18.122;2023-04-05T05:29:13;99720.74;;;-1.33;71.65
62703;BME280;66022;50.448;18.122;2023-04-05T05:33:27;99720.61;;;-1.14;71.60
62703;BME280;66022;50.448;18.122;2023-04-05T05:37:41;99721.37;;;-0.95;71.70
62703;BME280;66022;50.448;18.122;2023-04-05T05:41:55;99720.70;;;-0.71;70.31
62703;BME280;66022;50.448;18.122;2023-04-05T05:46:09;99718.72;;;-0.51;71.20
62703;BME280;66022;50.448;18.122;2023-04-05T05:50:23;99716.47;;;-0.24;69.06
62703;BME280;66022;50.448;18.122;2023-04-05T05:54:39;99715.25;;;0.01;69.37
62703;BME280;66022;50.448;18.122;2023-04-05T05:58:57;99713.95;;;0.24;69.82
62703;BME280;66022;50.448;18.122;2023-04-05T06:03:06;99713.26;;;0.48;69.02
62703;BME280;66022;50.448;18.122;2023-04-05T06:07:19;99713.81;;;0.70;69.74
62703;BME280;66022;50.448;18.122;2023-04-05T06:11:33;99714.77;;;0.93;67.68
62703;BME280;66022;50.448;18.122;2023-04-05T06:15:47;99715.66;;;1.13;67.90
62703;BME280;66022;50.448;18.122;2023-04-05T06:20:01;99716.41;;;1.43;67.11
62703;BME280;66022;50.448;18.122;2023-04-05T06:24:15;99716.64;;;1.73;65.82
62703;BME280;66022;50.448;18.122;2023-04-05T06:28:29;99717.30;;;1.94;65.92
62703;BME280;66022;50.448;18.122;2023-04-05T06:32:43;99716.21;;;2.15;65.96
62703;BME280;66022;50.448;18.122;2023-04-05T06:36:57;99716.02;;;2.32;65.59
62703;BME280;66022;50.448;18.122;2023-04-05T06:41:11;99718.06;;;2.48;65.53
62703;BME280;66022;50.448;18.122;2023-04-05T06:45:25;99719.45;;;2.62;65.08
62703;BME280;66022;50.448;18.122;2023-04-05T06:49:39;99721.81;;;2.78;64.21
62703;BME280;66022;50.448;18.122;2023-04-05T06:53:53;99723.22;;;3.00;63.74
62703;BME280;66022;50.448;18.122;2023-04-05T06:58:07;99725.00;;;3.13;63.52
62703;BME280;66022;50.448;18.122;2023-04-05T07:02:21;99726.67;;;3.30;63.80
62703;BME280;66022;50.448;18.122;2023-04-05T07:06:35;99727.21;;;3.44;62.55
62703;BME280;66022;50.448;18.122;2023-04-05T07:10:49;99727.69;;;3.62;63.12
62703;BME280;66022;50.448;18.122;2023-04-05T07:15:03;99728.58;;;3.73;62.73
62703;BME280;66022;50.448;18.122;2023-04-05T07:19:17;99729.43;;;3.79;62.35
62703;BME280;66022;50.448;18.122;2023-04-05T07:23:31;99729.94;;;3.87;62.53
62703;BME280;66022;50.448;18.122;2023-04-05T07:27:45;99731.15;;;3.91;62.49
62703;BME280;66022;50.448;18.122;2023-04-05T07:31:59;99731.84;;;4.00;62.41
62703;BME280;66022;50.448;18.122;2023-04-05T07:36:13;99733.97;;;4.04;61.20
62703;BME280;66022;50.448;18.122;2023-04-05T07:40:27;99734.58;;;4.13;61.02
62703;BME280;66022;50.448;18.122;2023-04-05T07:44:41;99735.39;;;4.22;61.17
62703;BME280;66022;50.448;18.122;2023-04-05T07:48:55;99735.46;;;4.27;61.32
62703;BME280;66022;50.448;18.122;2023-04-05T07:53:09;99735.99;;;4.36;62.00
62703;BME280;66022;50.448;18.122;2023-04-05T07:57:23;99735.88;;;4.44;61.49
62703;BME280;66022;50.448;18.122;2023-04-05T08:01:37;99736.60;;;4.57;60.52
62703;BME280;66022;50.448;18.122;2023-04-05T08:05:51;99736.50;;;4.65;58.03
62703;BME280;66022;50.448;18.122;2023-04-05T08:10:05;99737.23;;;4.72;59.51
62703;BME280;66022;50.448;18.122;2023-04-05T08:14:19;99740.19;;;4.76;60.72
62703;BME280;66022;50.448;18.122;2023-04-05T08:18:33;99742.30;;;4.71;60.84
62703;BME280;66022;50.448;18.122;2023-04-05T08:22:47;99742.53;;;4.68;60.28
62703;BME280;66022;50.448;18.122;2023-04-05T08:27:01;99742.25;;;4.74;58.39
62703;BME280;66022;50.448;18.122;2023-04-05T08:31:15;99742.17;;;4.95;56.81
62703;BME280;66022;50.448;18.122;2023-04-05T08:35:29;99742.70;;;5.19;54.90
62703;BME280;66022;50.448;18.122;2023-04-05T08:39:43;99744.02;;;5.44;55.26
62703;BME280;66022;50.448;18.122;2023-04-05T08:44:00;99743.72;;;5.78;54.25
62703;BME280;66022;50.448;18.122;2023-04-05T08:48:11;99742.97;;;6.09;52.47
62703;BME280;66022;50.448;18.122;2023-04-05T08:52:25;99742.35;;;6.50;51.84
62703;BME280;66022;50.448;18.122;2023-04-05T08:56:39;99740.37;;;6.80;49.08
62703;BME280;66022;50.448;18.122;2023-04-05T09:00:53;99737.70;;;7.11;51.86
62703;BME280;66022;50.448;18.122;2023-04-05T09:05:07;99736.10;;;7.37;51.94
62703;BME280;66022;50.448;18.122;2023-04-05T09:09:21;99734.80;;;7.52;49.92
62703;BME280;66022;50.448;18.122;2023-04-05T09:13:35;99734.52;;;7.67;48.37
62703;BME280;66022;50.448;18.122;2023-04-05T09:17:49;99733.67;;;7.74;45.14
62703;BME280;66022;50.448;18.122;2023-04-05T09:22:06;99731.34;;;7.90;46.81
62703;BME280;66022;50.448;18.122;2023-04-05T09:26:17;99728.92;;;8.08;42.15
62703;BME280;66022;50.448;18.122;2023-04-05T09:30:31;99726.08;;;8.44;45.87
62703;BME280;66022;50.448;18.122;2023-04-05T09:34:45;99722.99;;;8.72;47.00
62703;BME280;66022;50.448;18.122;2023-04-05T09:47:28;99716.14;;;8.66;47.78
62703;BME280;66022;50.448;18.122;2023-04-05T09:51:41;99714.12;;;8.79;47.60
62703;BME280;66022;50.448;18.122;2023-04-05T09:55:59;99712.50;;;8.82;41.88
62703;BME280;66022;50.448;18.122;2023-04-05T10:04:23;99707.56;;;8.82;46.84
62703;BME280;66022;50.448;18.122;2023-04-05T10:08:37;99706.27;;;8.74;46.58
62703;BME280;66022;50.448;18.122;2023-04-05T10:12:51;99706.81;;;8.62;47.24
62703;BME280;66022;50.448;18.122;2023-04-05T10:17:11;99705.58;;;8.46;46.52
62703;BME280;66022;50.448;18.122;2023-04-05T10:21:23;99703.81;;;8.47;44.36
62703;BME280;66022;50.448;18.122;2023-04-05T10:29:51;99698.99;;;8.64;43.37
62703;BME280;66022;50.448;18.122;2023-04-05T10:34:05;99694.59;;;8.60;46.71
62703;BME280;66022;50.448;18.122;2023-04-05T10:42:50;99684.78;;;8.91;43.49
62703;BME280;66022;50.448;18.122;2023-04-05T10:46:44;99680.58;;;9.02;43.02
62703;BME280;66022;50.448;18.122;2023-04-05T10:50:57;99675.87;;;9.05;44.61
62703;BME280;66022;50.448;18.122;2023-04-05T10:55:11;99672.83;;;9.14;42.33
62703;BME280;66022;50.448;18.122;2023-04-05T10:59:25;99670.17;;;9.31;43.99
62703;BME280;66022;50.448;18.122;2023-04-05T11:07:53;99664.59;;;9.49;44.21
62703;BME280;66022;50.448;18.122;2023-04-05T11:12:07;99663.42;;;9.48;44.23
62703;BME280;66022;50.448;18.122;2023-04-05T11:16:21;99662.05;;;9.29;41.33
62703;BME280;66022;50.448;18.122;2023-04-05T11:20:39;99659.89;;;9.20;46.04
62703;BME280;66022;50.448;18.122;2023-04-05T11:24:50;99657.95;;;9.12;44.39
62703;BME280;66022;50.448;18.122;2023-04-05T11:29:03;99655.70;;;9.01;46.42
62703;BME280;66022;50.448;18.122;2023-04-05T11:46:01;99650.66;;;8.63;41.81
62703;BME280;66022;50.448;18.122;2023-04-05T11:50:13;99647.77;;;8.70;45.48
62703;BME280;66022;50.448;18.122;2023-04-05T11:58:41;99642.47;;;8.99;45.55
62703;BME280;66022;50.448;18.122;2023-04-05T12:02:55;99640.19;;;9.19;44.51
62703;BME280;66022;50.448;18.122;2023-04-05T12:07:10;99638.51;;;9.35;44.22
62703;BME280;66022;50.448;18.122;2023-04-05T12:11:29;99636.36;;;9.40;44.32
62703;BME280;66022;50.448;18.122;2023-04-05T12:15:38;99635.71;;;9.37;46.24
62703;BME280;66022;50.448;18.122;2023-04-05T12:19:51;99635.30;;;9.29;46.82
62703;BME280;66022;50.448;18.122;2023-04-05T12:24:05;99634.73;;;9.12;43.53
62703;BME280;66022;50.448;18.122;2023-04-05T12:28:19;99632.70;;;8.79;45.82
62703;BME280;66022;50.448;18.122;2023-04-05T12:36:47;99629.94;;;8.34;45.94
62703;BME280;66022;50.448;18.122;2023-04-05T12:41:01;99629.35;;;8.18;48.07
62703;BME280;66022;50.448;18.122;2023-04-05T12:45:15;99627.48;;;8.09;47.70
62703;BME280;66022;50.448;18.122;2023-04-05T12:49:33;99626.05;;;8.00;47.63
62703;BME280;66022;50.448;18.122;2023-04-05T12:53:44;99624.31;;;7.94;47.69
62703;BME280;66022;50.448;18.122;2023-04-05T12:57:58;99623.22;;;7.80;47.83
62703;BME280;66022;50.448;18.122;2023-04-05T13:02:11;99622.13;;;7.69;49.16
62703;BME280;66022;50.448;18.122;2023-04-05T13:06:25;99621.83;;;7.54;47.19
62703;BME280;66022;50.448;18.122;2023-04-05T13:10:39;99621.37;;;7.41;48.73
62703;BME280;66022;50.448;18.122;2023-04-05T13:14:53;99622.11;;;7.27;48.68
62703;BME280;66022;50.448;18.122;2023-04-05T13:19:07;99622.83;;;7.09;49.34
62703;BME280;66022;50.448;18.122;2023-04-05T13:23:21;99623.58;;;6.94;49.33
62703;BME280;66022;50.448;18.122;2023-04-05T13:27:35;99623.78;;;6.81;50.15
62703;BME280;66022;50.448;18.122;2023-04-05T13:31:49;99623.13;;;6.73;49.96
62703;BME280;66022;50.448;18.122;2023-04-05T13:36:03;99623.30;;;6.62;48.00
62703;BME280;66022;50.448;18.122;2023-04-05T13:40:17;99622.48;;;6.57;50.11
62703;BME280;66022;50.448;18.122;2023-04-05T13:44:31;99621.22;;;6.56;47.59
62703;BME280;66022;50.448;18.122;2023-04-05T13:48:46;99619.97;;;6.50;47.94
62703;BME280;66022;50.448;18.122;2023-04-05T13:52:59;99620.14;;;6.44;47.98
62703;BME280;66022;50.448;18.122;2023-04-05T13:57:14;99620.29;;;6.35;48.99
62703;BME280;66022;50.448;18.122;2023-04-05T14:01:27;99619.87;;;6.28;50.43
62703;BME280;66022;50.448;18.122;2023-04-05T14:05:41;99619.76;;;6.21;50.35
62703;BME280;66022;50.448;18.122;2023-04-05T14:09:55;99619.69;;;6.15;51.26
62703;BME280;66022;50.448;18.122;2023-04-05T14:14:09;99620.10;;;6.09;51.79
62703;BME280;66022;50.448;18.122;2023-04-05T14:18:23;99620.50;;;6.00;51.51
62703;BME280;66022;50.448;18.122;2023-04-05T14:22:37;99621.58;;;5.96;50.86
62703;BME280;66022;50.448;18.122;2023-04-05T14:26:51;99620.43;;;5.90;50.30
62703;BME280;66022;50.448;18.122;2023-04-05T14:31:06;99617.02;;;5.91;49.82
62703;BME280;66022;50.448;18.122;2023-04-05T14:35:19;99614.45;;;5.91;50.99
62703;BME280;66022;50.448;18.122;2023-04-05T14:39:33;99612.54;;;5.93;51.48
62703;BME280;66022;50.448;18.122;2023-04-05T14:43:47;99611.72;;;5.98;51.46
62703;BME280;66022;50.448;18.122;2023-04-05T14:48:01;99612.48;;;6.00;50.64
62703;BME280;66022;50.448;18.122;2023-04-05T14:52:15;99612.25;;;6.05;51.96
62703;BME280;66022;50.448;18.122;2023-04-05T14:56:29;99611.83;;;6.08;48.86
62703;BME280;66022;50.448;18.122;2023-04-05T15:00:43;99611.08;;;6.13;50.97
62703;BME280;66022;50.448;18.122;2023-04-05T15:04:57;99610.77;;;6.18;51.05
62703;BME280;66022;50.448;18.122;2023-04-05T15:09:11;99610.94;;;6.23;50.54
62703;BME280;66022;50.448;18.122;2023-04-05T15:13:25;99610.78;;;6.30;50.90
62703;BME280;66022;50.448;18.122;2023-04-05T15:17:39;99610.46;;;6.33;51.74
62703;BME280;66022;50.448;18.122;2023-04-05T15:21:54;99610.27;;;6.36;50.99
62703;BME280;66022;50.448;18.122;2023-04-05T15:26:07;99610.35;;;6.34;48.39
62703;BME280;66022;50.448;18.122;2023-04-05T15:30:21;99610.86;;;6.38;51.54
62703;BME280;66022;50.448;18.122;2023-04-05T15:34:35;99610.86;;;6.43;52.01
62703;BME280;66022;50.448;18.122;2023-04-05T15:38:49;99610.19;;;6.47;51.89
62703;BME280;66022;50.448;18.122;2023-04-05T15:43:03;99610.78;;;6.52;52.62
62703;BME280;66022;50.448;18.122;2023-04-05T15:47:17;99610.96;;;6.53;52.25
62703;BME280;66022;50.448;18.122;2023-04-05T15:51:32;99611.21;;;6.55;52.70
62703;BME280;66022;50.448;18.122;2023-04-05T15:55:45;99610.63;;;6.55;50.76
62703;BME280;66022;50.448;18.122;2023-04-05T15:59:59;99610.46;;;6.56;51.56
62703;BME280;66022;50.448;18.122;2023-04-05T16:04:13;99609.55;;;6.55;52.20
62703;BME280;66022;50.448;18.122;2023-04-05T16:08:28;99608.61;;;6.47;52.11
62703;BME280;66022;50.448;18.122;2023-04-05T16:12:41;99607.03;;;6.42;51.82
62703;BME280;66022;50.448;18.122;2023-04-05T16:16:55;99606.69;;;6.33;52.21
62703;BME280;66022;50.448;18.122;2023-04-05T16:21:09;99606.70;;;6.27;53.13
62703;BME280;66022;50.448;18.122;2023-04-05T16:25:23;99606.34;;;6.22;53.44
62703;BME280;66022;50.448;18.122;2023-04-05T16:29:37;99606.10;;;6.18;53.53
62703;BME280;66022;50.448;18.122;2023-04-05T16:33:51;99607.76;;;6.16;53.52
62703;BME280;66022;50.448;18.122;2023-04-05T16:38:05;99609.27;;;6.08;54.65
62703;BME280;66022;50.448;18.122;2023-04-05T16:42:19;99610.50;;;6.05;54.89
62703;BME280;66022;50.448;18.122;2023-04-05T16:46:34;99612.56;;;5.98;54.89
62703;BME280;66022;50.448;18.122;2023-04-05T16:50:47;99613.11;;;5.94;55.99
62703;BME280;66022;50.448;18.122;2023-04-05T16:55:01;99614.42;;;5.89;56.49
62703;BME280;66022;50.448;18.122;2023-04-05T16:59:15;99615.83;;;5.83;56.93
62703;BME280;66022;50.448;18.122;2023-04-05T17:03:30;99617.82;;;5.77;56.67
62703;BME280;66022;50.448;18.122;2023-04-05T17:07:44;99619.97;;;5.69;56.72
62703;BME280;66022;50.448;18.122;2023-04-05T17:11:57;99622.62;;;5.61;57.20
62703;BME280;66022;50.448;18.122;2023-04-05T17:16:12;99624.73;;;5.47;57.30
62703;BME280;66022;50.448;18.122;2023-04-05T17:20:25;99626.42;;;5.39;58.20
62703;BME280;66022;50.448;18.122;2023-04-05T17:24:39;99628.07;;;5.31;59.01
62703;BME280;66022;50.448;18.122;2023-04-05T17:28:54;99629.61;;;5.22;59.42
62703;BME280;66022;50.448;18.122;2023-04-05T17:33:08;99630.81;;;5.15;59.51
62703;BME280;66022;50.448;18.122;2023-04-05T17:37:22;99631.58;;;5.06;60.08
62703;BME280;66022;50.448;18.122;2023-04-05T17:41:36;99631.70;;;4.99;60.25
62703;BME280;66022;50.448;18.122;2023-04-05T17:45:50;99632.39;;;4.89;60.35
62703;BME280;66022;50.448;18.122;2023-04-05T17:50:04;99632.76;;;4.81;60.59
62703;BME280;66022;50.448;18.122;2023-04-05T17:54:18;99634.13;;;4.73;61.03
62703;BME280;66022;50.448;18.122;2023-04-05T17:58:32;99638.09;;;4.62;61.11
62703;BME280;66022;50.448;18.122;2023-04-05T18:02:46;99640.94;;;4.54;61.27
62703;BME280;66022;50.448;18.122;2023-04-05T18:07:00;99644.51;;;4.43;62.00
62703;BME280;66022;50.448;18.122;2023-04-05T18:11:14;99647.85;;;4.33;62.18
62703;BME280;66022;50.448;18.122;2023-04-05T18:15:28;99651.95;;;4.20;62.17
62703;BME280;66022;50.448;18.122;2023-04-05T18:19:42;99655.75;;;4.06;63.00
62703;BME280;66022;50.448;18.122;2023-04-05T18:23:56;99658.73;;;3.91;63.25
62703;BME280;66022;50.448;18.122;2023-04-05T18:28:11;99661.94;;;3.73;63.60
62703;BME280;66022;50.448;18.122;2023-04-05T18:32:24;99666.49;;;3.62;63.94
62703;BME280;66022;50.448;18.122;2023-04-05T18:36:38;99669.72;;;3.51;65.55
62703;BME280;66022;50.448;18.122;2023-04-05T18:40:57;99672.47;;;3.44;64.30
62703;BME280;66022;50.448;18.122;2023-04-05T18:45:06;99675.50;;;3.36;63.97
62703;BME280;66022;50.448;18.122;2023-04-05T18:49:20;99677.64;;;3.27;64.19
62703;BME280;66022;50.448;18.122;2023-04-05T18:53:34;99679.53;;;3.21;64.43
62703;BME280;66022;50.448;18.122;2023-04-05T18:57:48;99681.17;;;3.12;64.94
62703;BME280;66022;50.448;18.122;2023-04-05T19:02:02;99683.22;;;3.05;64.93
62703;BME280;66022;50.448;18.122;2023-04-05T19:06:16;99685.42;;;2.92;67.51
62703;BME280;66022;50.448;18.122;2023-04-05T19:10:30;99687.05;;;2.84;65.79
62703;BME280;66022;50.448;18.122;2023-04-05T19:14:44;99689.97;;;2.75;66.15
62703;BME280;66022;50.448;18.122;2023-04-05T19:18:58;99691.20;;;2.64;66.43
62703;BME280;66022;50.448;18.122;2023-04-05T19:23:12;99692.49;;;2.57;66.33
62703;BME280;66022;50.448;18.122;2023-04-05T19:27:26;99692.83;;;2.47;67.42
62703;BME280;66022;50.448;18.122;2023-04-05T19:31:40;99693.88;;;2.41;66.86
62703;BME280;66022;50.448;18.122;2023-04-05T19:35:56;99693.80;;;2.31;69.19
62703;BME280;66022;50.448;18.122;2023-04-05T19:40:08;99693.87;;;2.26;67.49
62703;BME280;66022;50.448;18.122;2023-04-05T19:48:39;99693.63;;;2.14;68.96
62703;BME280;66022;50.448;18.122;2023-04-05T19:52:49;99692.68;;;2.11;68.62
62703;BME280;66022;50.448;18.122;2023-04-05T19:57:04;99691.96;;;2.07;70.05
62703;BME280;66022;50.448;18.122;2023-04-05T20:09:46;99687.86;;;2.15;69.36
62703;BME280;66022;50.448;18.122;2023-04-05T20:14:00;99685.19;;;2.19;69.27
62703;BME280;66022;50.448;18.122;2023-04-05T20:18:17;99683.40;;;2.20;69.49
62703;BME280;66022;50.448;18.122;2023-04-05T20:22:28;99680.74;;;2.23;69.71
62703;BME280;66022;50.448;18.122;2023-04-05T20:26:42;99678.46;;;2.23;72.12
62703;BME280;66022;50.448;18.122;2023-04-05T20:30:56;99676.76;;;2.24;70.13
62703;BME280;66022;50.448;18.122;2023-04-05T20:35:27;99673.72;;;2.27;69.92
62703;BME280;66022;50.448;18.122;2023-04-05T20:39:24;99671.43;;;2.28;70.23
62703;BME280;66022;50.448;18.122;2023-04-05T20:43:38;99669.81;;;2.30;70.11
62703;BME280;66022;50.448;18.122;2023-04-05T20:47:52;99666.91;;;2.30;70.91
62703;BME280;66022;50.448;18.122;2023-04-05T20:52:06;99665.16;;;2.30;70.32
62703;BME280;66022;50.448;18.122;2023-04-05T20:56:20;99664.81;;;2.23;74.36
62703;BME280;66022;50.448;18.122;2023-04-05T21:00:33;99663.70;;;2.23;71.07
62703;BME280;66022;50.448;18.122;2023-04-05T21:04:48;99663.26;;;2.21;71.32
62703;BME280;66022;50.448;18.122;2023-04-05T21:09:02;99663.14;;;2.18;71.70
62703;BME280;66022;50.448;18.122;2023-04-05T21:13:16;99662.53;;;2.16;71.19
62703;BME280;66022;50.448;18.122;2023-04-05T21:17:30;99661.72;;;2.13;72.58
62703;BME280;66022;50.448;18.122;2023-04-05T21:21:44;99660.85;;;2.11;71.70
62703;BME280;66022;50.448;18.122;2023-04-05T21:25:57;99659.92;;;2.05;74.66
62703;BME280;66022;50.448;18.122;2023-04-05T21:30:12;99659.11;;;2.02;71.54
62703;BME280;66022;50.448;18.122;2023-04-05T21:34:26;99658.58;;;1.99;71.56
62703;BME280;66022;50.448;18.122;2023-04-05T21:38:40;99659.09;;;1.93;72.03
62703;BME280;66022;50.448;18.122;2023-04-05T21:42:54;99659.28;;;1.89;71.70
62703;BME280;66022;50.448;18.122;2023-04-05T21:47:08;99660.58;;;1.83;73.33
62703;BME280;66022;50.448;18.122;2023-04-05T21:51:24;99661.08;;;1.80;72.07
62703;BME280;66022;50.448;18.122;2023-04-05T21:55:35;99661.50;;;1.75;72.29
62703;BME280;66022;50.448;18.122;2023-04-05T21:59:49;99660.49;;;1.70;72.77
62703;BME280;66022;50.448;18.122;2023-04-05T22:04:03;99660.05;;;1.64;72.76
62703;BME280;66022;50.448;18.122;2023-04-05T22:08:18;99658.70;;;1.56;73.84
62703;BME280;66022;50.448;18.122;2023-04-05T22:12:31;99658.54;;;1.52;73.53
62703;BME280;66022;50.448;18.122;2023-04-05T22:16:45;99658.91;;;1.45;76.65
62703;BME280;66022;50.448;18.122;2023-04-05T22:21:00;99659.80;;;1.41;73.96
62703;BME280;66022;50.448;18.122;2023-04-05T22:25:14;99661.53;;;1.36;74.33
62703;BME280;66022;50.448;18.122;2023-04-05T22:29:28;99663.11;;;1.32;74.96
62703;BME280;66022;50.448;18.122;2023-04-05T22:33:43;99663.11;;;1.29;74.56
62703;BME280;66022;50.448;18.122;2023-04-05T22:37:56;99662.91;;;1.23;75.80
62703;BME280;66022;50.448;18.122;2023-04-05T22:42:11;99663.11;;;1.20;74.53
62703;BME280;66022;50.448;18.122;2023-04-05T22:46:24;99662.78;;;1.13;80.00
62703;BME280;66022;50.448;18.122;2023-04-05T22:50:38;99662.87;;;1.10;75.51
62703;BME280;66022;50.448;18.122;2023-04-05T22:54:51;99661.80;;;1.06;75.22
62703;BME280;66022;50.448;18.122;2023-04-05T22:59:06;99660.55;;;1.02;76.21
62703;BME280;66022;50.448;18.122;2023-04-05T23:03:20;99659.01;;;1.00;76.11
62703;BME280;66022;50.448;18.122;2023-04-05T23:07:34;99656.78;;;0.97;77.86
62703;BME280;66022;50.448;18.122;2023-04-05T23:11:48;99654.85;;;0.95;76.18
62703;BME280;66022;50.448;18.122;2023-04-05T23:16:02;99653.23;;;0.90;80.55
62703;BME280;66022;50.448;18.122;2023-04-05T23:20:16;99651.61;;;0.88;76.81
62703;BME280;66022;50.448;18.122;2023-04-05T23:24:30;99650.66;;;0.85;74.62